Time;durP1;ratioP1;P1;durP2;ratioP2;P2;SDS_P1;SDS_P2;PMS_P1;PMS_P2;Temp;Humidity;BMP_temperature;BMP_pressure;BME280_temperature;BME280_humidity;BME280_pressure;Samples;Min_cycle;Max_cycle;Signal;HPM_P1;HPM_P2
2022/06/27 00:01:06;;;;;;;9.13;4.30;;;19.40;99.90;;;;;;4684368;30;20026;-85
2022/06/27 00:03:32;;;;;;;10.13;4.22;;;19.40;99.90;;;;;;4668646;30;20037;-83
2022/06/27 00:05:58;;;;;;;9.27;4.15;;;19.30;99.90;;;;;;4684660;30;20223;-83
2022/06/27 00:08:24;;;;;;;8.63;4.22;;;;;;;;;;4668534;30;20068;-85
2022/06/27 00:10:50;;;;;;;11.27;5.10;;;19.30;99.90;;;;;;4684311;30;20081;-85
2022/06/27 00:13:16;;;;;;;9.35;4.88;;;19.20;99.90;;;;;;4684566;30;20056;-82
2022/06/27 00:15:42;;;;;;;12.88;4.20;;;19.10;99.90;;;;;;4684147;30;20299;-84
2022/06/27 00:18:08;;;;;;;8.38;4.03;;;19.10;99.90;;;;;;4684262;30;20033;-85
2022/06/27 00:20:33;;;;;;;11.20;3.85;;;19.00;99.90;;;;;;4668862;30;20426;-85
2022/06/27 00:22:59;;;;;;;10.23;3.85;;;19.00;99.90;;;;;;4684474;30;20042;-84
2022/06/27 00:25:25;;;;;;;7.82;3.83;;;18.90;99.90;;;;;;4668816;30;20034;-85
2022/06/27 00:27:51;;;;;;;8.98;4.43;;;18.90;99.90;;;;;;4684443;30;20060;-86
2022/06/27 00:30:17;;;;;;;7.15;3.70;;;18.90;99.90;;;;;;4669094;30;20050;-84
2022/06/27 00:32:43;;;;;;;8.18;4.18;;;18.90;99.90;;;;;;4668458;30;20068;-85
2022/06/27 00:35:12;;;;;;;8.68;4.20;;;18.80;99.90;;;;;;4686343;30;20060;-85
2022/06/27 00:37:38;;;;;;;12.02;4.15;;;18.80;99.90;;;;;;4685765;30;20034;-86
2022/06/27 00:40:06;;;;;;;9.07;4.32;;;18.80;99.90;;;;;;4688264;30;20065;-85
2022/06/27 00:42:33;;;;;;;8.65;4.45;;;18.80;99.90;;;;;;4669952;30;20072;-84
2022/06/27 00:44:58;;;;;;;9.32;4.30;;;18.80;99.90;;;;;;4685328;30;20060;-86
2022/06/27 00:47:24;;;;;;;13.25;4.68;;;18.80;99.90;;;;;;4684198;30;20251;-86
2022/06/27 00:49:50;;;;;;;9.98;4.15;;;;;;;;;;4669033;30;20044;-84
2022/06/27 00:52:17;;;;;;;6.70;3.80;;;18.70;99.90;;;;;;4668752;30;20026;-83
2022/06/27 00:54:45;;;;;;;8.98;4.72;;;18.70;99.90;;;;;;4684305;30;20254;-84
2022/06/27 00:57:12;;;;;;;7.93;4.28;;;18.60;99.90;;;;;;4668684;30;20021;-86
2022/06/27 00:59:38;;;;;;;9.05;4.25;;;18.60;99.90;;;;;;4668414;30;20041;-86
2022/06/27 01:02:05;;;;;;;7.97;3.85;;;18.60;99.90;;;;;;4684058;30;20335;-84
2022/06/27 01:04:31;;;;;;;8.95;4.20;;;18.60;99.90;;;;;;4684112;30;20605;-83
2022/06/27 01:06:59;;;;;;;11.30;4.60;;;18.60;99.90;;;;;;4684171;30;20026;-86
2022/06/27 01:09:25;;;;;;;11.63;4.82;;;18.60;99.90;;;;;;4668166;30;20064;-83
2022/06/27 01:11:51;;;;;;;7.80;4.18;;;;;;;;;;4684126;30;20026;-84
2022/06/27 01:14:18;;;;;;;6.82;4.05;;;18.50;99.90;;;;;;4683918;30;20084;-84
2022/06/27 01:16:48;;;;;;;7.03;4.15;;;18.50;99.90;;;;;;4683651;30;20033;-85
2022/06/27 01:19:15;;;;;;;8.05;4.00;;;18.50;99.90;;;;;;4668049;30;20025;-85
2022/06/27 01:21:53;;;;;;;7.80;4.50;;;18.60;99.90;;;;;;4683673;30;20033;-85
2022/06/27 01:24:20;;;;;;;7.68;4.13;;;18.60;99.90;;;;;;4667941;30;20557;-83
2022/06/27 01:26:47;;;;;;;9.48;4.90;;;18.60;99.90;;;;;;4685518;30;20065;-86
2022/06/27 01:29:13;;;;;;;14.93;4.70;;;18.60;99.90;;;;;;4687285;30;20086;-82
2022/06/27 01:31:40;;;;;;;7.20;4.05;;;18.60;99.90;;;;;;4686957;30;20038;-85
2022/06/27 01:34:07;;;;;;;8.70;4.53;;;18.50;99.90;;;;;;4671317;30;20029;-83
2022/06/27 01:36:43;;;;;;;7.50;3.25;;;18.50;99.90;;;;;;4671480;30;20033;-84
2022/06/27 01:39:20;;;;;;;8.88;3.70;;;18.50;99.90;;;;;;4686716;30;20292;-83
2022/06/27 01:41:57;;;;;;;8.43;4.47;;;18.40;99.90;;;;;;4686880;30;20061;-82
2022/06/27 01:44:26;;;;;;;8.98;4.07;;;18.40;99.90;;;;;;4670881;30;20049;-83
2022/06/27 01:46:55;;;;;;;9.00;4.10;;;18.40;99.90;;;;;;4671366;30;20061;-86
2022/06/27 01:49:21;;;;;;;10.30;5.07;;;18.40;99.90;;;;;;4686891;30;20022;-83
2022/06/27 01:51:49;;;;;;;11.23;4.40;;;18.40;99.90;;;;;;4686743;30;20025;-83
2022/06/27 01:54:17;;;;;;;8.65;4.78;;;18.30;99.90;;;;;;4686555;30;20048;-84
2022/06/27 01:56:46;;;;;;;10.50;4.47;;;18.20;99.90;;;;;;4670922;30;20044;-85
2022/06/27 01:59:14;;;;;;;9.52;4.88;;;18.20;99.90;;;;;;4670865;30;20508;-83
2022/06/27 02:01:41;;;;;;;8.07;4.18;;;18.20;99.90;;;;;;4686597;30;20065;-86
2022/06/27 02:04:08;;;;;;;12.05;4.50;;;18.10;99.90;;;;;;4686694;30;20037;-85
2022/06/27 02:06:34;;;;;;;10.05;4.78;;;18.10;99.90;;;;;;4670839;30;20619;-86
2022/06/27 02:09:03;;;;;;;8.10;4.97;;;18.10;99.90;;;;;;4686180;30;20053;-85
2022/06/27 02:11:30;;;;;;;8.77;4.50;;;18.00;99.90;;;;;;4686291;30;20855;-85
2022/06/27 02:13:57;;;;;;;9.40;4.53;;;18.00;99.90;;;;;;4670775;30;20045;-82
2022/06/27 02:16:24;;;;;;;8.25;4.45;;;18.00;99.90;;;;;;4693435;30;20033;-85
2022/06/27 02:18:50;;;;;;;10.32;4.47;;;18.00;99.90;;;;;;4695693;30;20033;-85
2022/06/27 02:21:24;;;;;;;9.23;4.40;;;18.00;99.90;;;;;;4679587;30;20040;-85
2022/06/27 02:23:51;;;;;;;8.90;4.50;;;18.00;99.90;;;;;;4678874;30;20489;-85
2022/06/27 02:26:22;;;;;;;8.55;4.05;;;18.00;99.90;;;;;;4694446;30;20057;-83
2022/06/27 02:28:50;;;;;;;9.15;4.45;;;18.00;99.90;;;;;;4672531;30;20040;-84
2022/06/27 02:31:16;;;;;;;10.60;4.40;;;17.90;99.90;;;;;;4687112;30;20029;-83
2022/06/27 02:33:44;;;;;;;8.43;3.90;;;17.90;99.90;;;;;;4687845;30;20362;-84
2022/06/27 02:36:14;;;;;;;9.30;4.70;;;17.90;99.90;;;;;;4671633;30;20030;-84
2022/06/27 02:38:42;;;;;;;10.23;4.30;;;17.90;99.90;;;;;;4669923;30;20037;-85
2022/06/27 02:41:16;;;;;;;9.27;4.50;;;17.80;99.90;;;;;;4670480;30;20522;-85
2022/06/27 02:43:46;;;;;;;7.40;4.28;;;17.70;99.90;;;;;;4670472;30;20454;-84
2022/06/27 02:46:12;;;;;;;10.80;4.35;;;17.70;99.90;;;;;;4670544;30;20045;-85
2022/06/27 02:48:40;;;;;;;8.18;4.55;;;17.70;99.90;;;;;;4686310;30;20044;-86
2022/06/27 02:51:12;;;;;;;10.18;4.60;;;17.70;99.90;;;;;;4686128;30;20044;-85
2022/06/27 02:54:02;;;;;;;12.65;4.47;;;17.70;99.90;;;;;;4670493;30;20034;-85
2022/06/27 02:56:30;;;;;;;11.05;4.05;;;17.60;99.90;;;;;;4685943;30;20435;-85
2022/06/27 02:59:28;;;;;;;9.25;4.20;;;17.70;99.90;;;;;;4685588;30;20475;-82
2022/06/27 03:01:56;;;;;;;10.23;4.90;;;17.70;99.90;;;;;;4631197;30;20054;-84
2022/06/27 03:04:22;;;;;;;7.50;4.28;;;17.60;99.90;;;;;;4631071;30;20043;-83
2022/06/27 03:06:49;;;;;;;8.80;4.75;;;17.50;99.90;;;;;;4631485;30;20050;-86
2022/06/27 03:09:16;;;;;;;7.97;4.43;;;17.50;99.90;;;;;;4616961;30;20058;-84
2022/06/27 03:11:43;;;;;;;8.77;4.65;;;17.50;99.90;;;;;;4631082;30;20715;-83
2022/06/27 03:14:09;;;;;;;8.52;4.38;;;17.50;99.90;;;;;;4617208;30;20031;-83
2022/06/27 03:16:34;;;;;;;8.07;4.13;;;17.40;99.90;;;;;;4631057;30;20312;-85
2022/06/27 03:19:01;;;;;;;9.25;4.72;;;17.40;99.90;;;;;;4631090;30;20045;-85
2022/06/27 03:21:26;;;;;;;10.77;4.40;;;17.40;99.90;;;;;;4630676;30;20321;-85
2022/06/27 03:23:52;;;;;;;8.07;4.10;;;17.30;99.90;;;;;;4616853;30;20532;-85
2022/06/27 03:26:18;;;;;;;9.18;4.75;;;17.30;99.90;;;;;;4630729;30;20547;-84
2022/06/27 03:28:47;;;;;;;10.57;4.35;;;17.20;99.90;;;;;;4630468;30;20746;-85
2022/06/27 03:31:15;;;;;;;10.40;5.07;;;17.20;99.90;;;;;;4631022;30;20050;-83
2022/06/27 03:33:41;;;;;;;9.75;4.75;;;17.20;99.90;;;;;;4630842;30;20039;-83
2022/06/27 03:36:07;;;;;;;13.40;4.70;;;17.20;99.90;;;;;;4630694;30;20138;-85
2022/06/27 03:38:34;;;;;;;8.23;3.97;;;17.20;99.90;;;;;;4663345;30;20049;-84
2022/06/27 03:41:00;;;;;;;10.68;5.35;;;17.30;99.90;;;;;;4669563;30;20061;-85
2022/06/27 03:43:27;;;;;;;11.60;4.70;;;17.20;99.90;;;;;;4685810;30;20350;-83
2022/06/27 03:45:58;;;;;;;8.43;4.82;;;17.30;99.90;;;;;;4669941;30;20556;-86
2022/06/27 03:51:10;;;;;;;7.00;3.90;;;17.30;99.90;;;;;;4685087;30;20076;-85
2022/06/27 03:53:36;;;;;;;10.45;5.25;;;17.30;99.90;;;;;;4669234;30;20634;-83
2022/06/27 03:56:02;;;;;;;13.25;4.97;;;17.30;99.90;;;;;;4684533;30;20084;-86
2022/06/27 03:58:28;;;;;;;8.88;4.57;;;17.30;99.90;;;;;;4669292;30;20526;-83
2022/06/27 04:00:54;;;;;;;9.40;5.00;;;17.30;99.90;;;;;;4684931;30;20036;-84
2022/06/27 04:03:19;;;;;;;9.98;4.20;;;16.80;99.90;;;;;;4685079;30;20042;-84
2022/06/27 04:05:45;;;;;;;9.15;4.60;;;17.40;99.90;;;;;;4669240;30;20071;-82
2022/06/27 04:08:11;;;;;;;7.40;4.40;;;18.70;99.90;;;;;;4668709;30;20029;-85
2022/06/27 04:10:37;;;;;;;9.00;4.95;;;17.50;99.90;;;;;;4668508;30;20061;-85
2022/06/27 04:13:03;;;;;;;8.70;4.40;;;;;;;;;;4668843;30;20406;-83
2022/06/27 04:15:29;;;;;;;8.35;4.10;;;17.50;99.90;;;;;;4684513;30;20026;-83
2022/06/27 04:17:55;;;;;;;12.05;5.25;;;17.60;99.90;;;;;;4668374;30;20132;-83
2022/06/27 04:20:20;;;;;;;8.02;5.25;;;17.70;99.90;;;;;;4684598;30;20041;-85
2022/06/27 04:22:46;;;;;;;16.92;7.97;;;17.60;99.90;;;;;;4684521;30;20491;-85
2022/06/27 04:25:12;;;;;;;26.70;12.20;;;18.20;99.90;;;;;;4684416;30;20041;-85
2022/06/27 04:27:39;;;;;;;54.17;20.13;;;17.80;99.90;;;;;;4684872;30;20257;-83
2022/06/27 04:30:06;;;;;;;46.00;20.15;;;17.90;99.90;;;;;;4668981;30;20041;-84
2022/06/27 04:32:32;;;;;;;43.35;19.95;;;18.00;99.90;;;;;;4668850;30;20032;-85
2022/06/27 04:35:04;;;;;;;17.55;8.02;;;18.20;99.90;;;;;;4684552;30;20025;-86
2022/06/27 04:37:30;;;;;;;10.07;5.45;;;18.30;99.90;;;;;;4669277;30;20474;-83
2022/06/27 04:39:56;;;;;;;10.02;4.72;;;;;;;;;;4684800;30;20227;-86
2022/06/27 04:42:23;;;;;;;10.13;5.13;;;18.40;99.90;;;;;;4669212;30;20382;-84
2022/06/27 04:44:48;;;;;;;9.00;4.78;;;18.60;99.90;;;;;;4668875;30;20589;-83
2022/06/27 04:47:15;;;;;;;9.35;4.47;;;18.70;99.90;;;;;;4684397;30;20200;-85
2022/06/27 04:49:42;;;;;;;10.73;5.03;;;18.80;99.90;;;;;;4684666;30;20041;-83
2022/06/27 04:52:08;;;;;;;9.93;5.03;;;18.80;99.90;;;;;;4684864;30;20414;-83
2022/06/27 04:54:36;;;;;;;9.57;5.30;;;18.90;99.90;;;;;;4684411;30;20033;-84
2022/06/27 04:57:03;;;;;;;7.88;4.22;;;19.10;99.90;;;;;;4684738;30;20034;-82
2022/06/27 04:59:29;;;;;;;8.73;4.68;;;19.20;99.90;;;;;;4684844;30;20422;-83
2022/06/27 05:01:55;;;;;;;9.20;4.80;;;19.30;99.90;;;;;;4686666;30;20037;-83
2022/06/27 05:04:22;;;;;;;9.68;5.40;;;19.30;99.90;;;;;;4672247;30;20542;-85
2022/06/27 05:06:49;;;;;;;10.60;5.30;;;19.40;99.90;;;;;;4687408;30;20029;-86
2022/06/27 05:09:16;;;;;;;11.23;6.00;;;19.50;99.90;;;;;;4687311;30;20679;-83
2022/06/27 05:11:45;;;;;;;8.85;4.90;;;19.50;99.90;;;;;;4671927;30;20347;-85
2022/06/27 05:14:11;;;;;;;8.60;4.18;;;19.60;99.90;;;;;;4687802;30;20545;-83
2022/06/27 05:16:38;;;;;;;10.85;4.00;;;19.70;99.90;;;;;;4687729;30;20041;-84
2022/06/27 05:19:03;;;;;;;7.65;4.45;;;19.70;99.70;;;;;;4687371;30;20029;-83
2022/06/27 05:21:29;;;;;;;9.05;4.80;;;19.70;99.70;;;;;;4687333;30;20115;-84
2022/06/27 05:23:55;;;;;;;11.73;4.72;;;19.70;99.70;;;;;;4687475;30;20611;-84
2022/06/27 05:26:21;;;;;;;8.98;4.72;;;19.80;99.70;;;;;;4671536;30;20048;-86
2022/06/27 05:28:47;;;;;;;7.72;4.38;;;19.70;99.60;;;;;;4671285;30;20322;-83
2022/06/27 05:31:12;;;;;;;10.05;4.72;;;19.80;99.80;;;;;;4687227;30;20033;-83
2022/06/27 05:33:39;;;;;;;8.82;3.97;;;19.90;99.60;;;;;;4671367;30;20056;-85
2022/06/27 05:36:05;;;;;;;9.00;4.60;;;19.90;99.50;;;;;;4686773;30;20037;-84
2022/06/27 05:38:32;;;;;;;11.27;4.82;;;20.00;99.50;;;;;;4686785;30;20033;-85
2022/06/27 05:40:59;;;;;;;8.20;4.90;;;20.20;99.10;;;;;;4686967;30;20789;-82
2022/06/27 05:43:25;;;;;;;10.95;4.43;;;20.30;99.00;;;;;;4671106;30;20128;-83
2022/06/27 05:45:52;;;;;;;10.98;4.85;;;18.90;98.40;;;;;;4670982;30;20159;-83
2022/06/27 05:48:19;;;;;;;9.27;5.05;;;20.60;98.40;;;;;;4686737;30;20050;-84
2022/06/27 05:50:45;;;;;;;8.77;4.80;;;;;;;;;;4686755;30;20052;-85
2022/06/27 05:53:10;;;;;;;8.23;4.30;;;20.80;97.60;;;;;;4676968;25;20037;-83
2022/06/27 05:55:38;;;;;;;10.13;4.90;;;20.80;97.90;;;;;;4653257;30;20050;-85
2022/06/27 05:58:04;;;;;;;7.97;4.35;;;21.00;97.50;;;;;;4654049;30;20049;-83
2022/06/27 06:00:31;;;;;;;10.38;4.70;;;21.10;97.50;;;;;;4653836;30;20061;-82
2022/06/27 06:03:03;;;;;;;9.10;4.55;;;21.20;97.10;;;;;;4669270;30;20026;-85
2022/06/27 06:05:29;;;;;;;8.65;4.90;;;21.30;97.20;;;;;;4653776;30;20339;-83
2022/06/27 06:08:02;;;;;;;9.88;5.05;;;21.50;96.70;;;;;;4669249;30;20511;-83
2022/06/27 06:10:28;;;;;;;11.57;5.82;;;21.50;96.40;;;;;;4669470;30;20058;-82
2022/06/27 06:12:56;;;;;;;10.70;5.57;;;21.70;96.40;;;;;;4669074;30;20040;-85
2022/06/27 06:15:28;;;;;;;12.27;5.28;;;21.70;96.20;;;;;;4653669;30;20030;-86
2022/06/27 06:18:07;;;;;;;10.95;5.90;;;21.80;96.40;;;;;;4654056;30;20601;-85
2022/06/27 06:20:33;;;;;;;11.65;5.57;;;21.90;96.20;;;;;;4654001;30;20212;-83
2022/06/27 06:23:06;;;;;;;9.63;5.45;;;22.10;96.00;;;;;;4669088;30;20041;-85
2022/06/27 06:25:34;;;;;;;15.52;5.50;;;22.20;95.70;;;;;;4652906;30;20034;-85
2022/06/27 06:28:02;;;;;;;9.95;5.57;;;22.30;95.40;;;;;;4669051;30;20030;-83
2022/06/27 06:30:33;;;;;;;9.20;5.60;;;22.40;94.90;;;;;;4669178;30;20251;-86
2022/06/27 06:33:02;;;;;;;11.07;4.70;;;22.10;95.30;;;;;;4668680;30;20030;-82
2022/06/27 06:35:29;;;;;;;9.82;5.80;;;22.40;95.40;;;;;;4668971;30;20049;-82
2022/06/27 06:37:56;;;;;;;8.82;5.15;;;;;;;;;;4669212;30;20041;-83
2022/06/27 06:40:25;;;;;;;11.68;5.00;;;22.60;94.70;;;;;;4655731;30;20385;-87
2022/06/27 06:42:54;;;;;;;9.25;4.85;;;22.60;94.80;;;;;;4655754;30;20069;-85
2022/06/27 06:45:20;;;;;;;11.73;5.38;;;22.80;94.50;;;;;;4656106;30;20082;-84
2022/06/27 06:47:48;;;;;;;11.23;4.60;;;22.90;94.50;;;;;;4655283;30;20033;-84
2022/06/27 06:50:18;;;;;;;8.05;5.53;;;23.10;94.10;;;;;;4653133;30;20060;-84
2022/06/27 06:52:53;;;;;;;9.57;4.38;;;23.30;93.10;;;;;;4653039;30;20030;-86
2022/06/27 06:55:21;;;;;;;11.30;5.25;;;23.20;93.50;;;;;;4649549;30;20145;-84
2022/06/27 06:57:49;;;;;;;11.13;5.93;;;24.50;93.50;;;;;;4650005;30;20415;-84
2022/06/27 07:00:16;;;;;;;10.02;4.40;;;23.50;92.90;;;;;;4649851;30;20038;-85
2022/06/27 07:02:43;;;;;;;10.25;4.22;;;23.60;92.80;;;;;;4650335;30;20313;-83
2022/06/27 07:05:31;;;;;;;8.02;3.78;;;23.80;92.50;;;;;;4650448;30;20705;-85
2022/06/27 07:07:58;;;;;;;8.88;4.05;;;24.00;92.60;;;;;;4675701;25;20135;-87
2022/06/27 07:10:25;;;;;;;9.93;4.38;;;24.10;91.90;;;;;;4668701;30;20033;-86
2022/06/27 07:12:51;;;;;;;9.65;4.60;;;24.10;92.00;;;;;;4682719;30;20030;-85
2022/06/27 07:15:18;;;;;;;9.57;4.15;;;24.30;91.80;;;;;;4684139;30;20623;-83
2022/06/27 07:17:46;;;;;;;7.75;3.47;;;24.40;92.00;;;;;;4668593;30;20030;-83
2022/06/27 07:20:13;;;;;;;12.52;4.32;;;24.40;91.60;;;;;;4668814;30;20037;-83
2022/06/27 07:22:40;;;;;;;7.93;4.18;;;24.60;91.20;;;;;;4668694;30;20037;-83
2022/06/27 07:25:07;;;;;;;10.05;4.30;;;24.70;91.00;;;;;;4683480;30;20045;-82
2022/06/27 07:27:34;;;;;;;6.53;3.67;;;24.90;90.70;;;;;;4668722;30;20033;-83
2022/06/27 07:30:02;;;;;;;9.18;3.95;;;25.00;90.30;;;;;;4684508;30;20033;-84
2022/06/27 07:32:29;;;;;;;9.60;4.95;;;25.20;90.30;;;;;;4683476;30;20036;-84
2022/06/27 07:34:57;;;;;;;8.30;4.45;;;25.40;90.00;;;;;;4666890;30;20145;-85
2022/06/27 07:37:23;;;;;;;8.15;4.10;;;25.50;89.60;;;;;;4683177;30;20029;-84
2022/06/27 07:39:49;;;;;;;8.73;4.30;;;25.50;89.00;;;;;;4668439;30;20397;-83
2022/06/27 07:42:24;;;;;;;6.55;4.15;;;25.70;89.10;;;;;;4668260;30;20324;-83
2022/06/27 07:44:50;;;;;;;6.10;3.53;;;25.90;88.30;;;;;;4668023;30;20053;-83
2022/06/27 07:47:16;;;;;;;10.73;4.07;;;26.00;88.60;;;;;;4668530;30;20231;-84
2022/06/27 07:49:41;;;;;;;8.45;4.47;;;26.10;87.50;;;;;;4684264;30;20343;-84
2022/06/27 07:52:07;;;;;;;8.73;4.32;;;26.00;86.70;;;;;;4684392;30;20060;-84
2022/06/27 07:54:33;;;;;;;6.70;3.28;;;26.30;85.90;;;;;;4684572;30;20434;-84
2022/06/27 07:57:02;;;;;;;10.27;4.20;;;26.30;85.70;;;;;;4684172;30;20029;-84
2022/06/27 07:59:28;;;;;;;8.80;4.25;;;26.40;85.40;;;;;;4668680;30;20119;-84
2022/06/27 08:01:54;;;;;;;8.98;4.30;;;26.60;86.40;;;;;;4668231;30;20030;-83
2022/06/27 08:04:20;;;;;;;6.78;3.92;;;26.80;85.10;;;;;;4667637;30;20037;-84
2022/06/27 08:06:49;;;;;;;10.68;4.10;;;26.90;83.30;;;;;;4641252;30;1308448;-82
2022/06/27 08:09:15;;;;;;;8.95;4.45;;;27.10;82.50;;;;;;4685582;30;20034;-85
2022/06/27 08:11:42;;;;;;;7.55;3.80;;;27.00;82.00;;;;;;4685536;30;20421;-84
2022/06/27 08:14:16;;;;;;;8.20;3.85;;;27.20;81.30;;;;;;4685952;30;20029;-83
2022/06/27 08:16:54;;;;;;;7.65;3.60;;;27.30;80.50;;;;;;4682370;25;20073;-86
2022/06/27 08:19:31;;;;;;;8.30;4.03;;;27.30;80.10;;;;;;4667788;30;20038;-83
2022/06/27 08:21:58;;;;;;;10.75;4.07;;;26.60;78.80;;;;;;4652103;30;20045;-85
2022/06/27 08:24:24;;;;;;;8.40;3.95;;;27.50;80.00;;;;;;4651579;30;20046;-85
2022/06/27 08:26:50;;;;;;;6.32;3.78;;;27.60;79.90;;;;;;4651929;30;20188;-84
2022/06/27 08:29:17;;;;;;;9.25;4.47;;;27.80;78.80;;;;;;4651772;30;20084;-84
2022/06/27 08:31:46;;;;;;;9.13;4.32;;;28.00;78.20;;;;;;4667023;30;20544;-84
2022/06/27 08:34:24;;;;;;;11.05;4.22;;;28.10;78.20;;;;;;4666814;30;20121;-85
2022/06/27 08:36:50;;;;;;;7.30;3.65;;;28.20;78.20;;;;;;4654601;30;20030;-84
2022/06/27 08:39:16;;;;;;;11.07;4.30;;;28.40;77.00;;;;;;4670675;30;20033;-83
2022/06/27 08:41:45;;;;;;;6.38;3.42;;;28.60;76.40;;;;;;4654574;30;20049;-84
2022/06/27 08:44:11;;;;;;;8.07;3.97;;;28.60;76.50;;;;;;4654690;30;20049;-83
2022/06/27 08:46:37;;;;;;;8.57;3.78;;;28.80;75.90;;;;;;4670028;30;20034;-83
2022/06/27 08:49:04;;;;;;;9.23;4.05;;;28.90;75.50;;;;;;4654899;30;20040;-83
2022/06/27 08:51:31;;;;;;;10.00;4.15;;;29.20;75.00;;;;;;4655016;30;20140;-83
2022/06/27 08:54:01;;;;;;;7.35;4.00;;;29.10;74.00;;;;;;4654873;30;20121;-84
2022/06/27 08:56:29;;;;;;;8.50;4.15;;;29.20;73.30;;;;;;4670487;30;20431;-83
2022/06/27 08:59:08;;;;;;;7.47;3.55;;;29.20;73.70;;;;;;4655215;30;20057;-82
2022/06/27 09:01:35;;;;;;;9.65;4.30;;;29.10;72.60;;;;;;4654999;30;20076;-85
2022/06/27 09:04:06;;;;;;;8.43;4.10;;;29.30;72.40;;;;;;4654817;30;20057;-84
2022/06/27 09:06:51;;;;;;;10.52;3.63;;;29.30;71.40;;;;;;4670453;30;20030;-80
2022/06/27 09:09:17;;;;;;;8.13;4.13;;;29.30;71.30;;;;;;4654357;30;20050;-83
2022/06/27 09:11:51;;;;;;;8.85;3.95;;;29.40;71.00;;;;;;4654827;30;20043;-82
2022/06/27 09:14:37;;;;;;;7.05;3.80;;;29.60;70.10;;;;;;4670481;30;20034;-83
2022/06/27 09:17:42;;;;;;;6.75;3.35;;;29.70;68.00;;;;;;4669717;30;20081;-83
2022/06/27 09:20:02;;;;;;;8.70;3.75;;;29.80;67.80;;;;;;4666647;30;20249;-85
2022/06/27 09:22:32;;;;;;;8.55;4.32;;;29.90;67.90;;;;;;4654620;30;20589;-87
2022/06/27 09:25:00;;;;;;;7.35;4.60;;;30.10;67.50;;;;;;4670389;30;20256;-84
2022/06/27 09:27:50;;;;;;;6.82;3.10;;;30.40;66.00;;;;;;4654648;30;20030;-84
2022/06/27 09:30:52;;;;;;;8.73;3.80;;;30.60;65.10;;;;;;4654323;30;20539;-85
2022/06/27 09:33:17;;;;;;;6.63;3.50;;;30.40;63.50;;;;;;4585574;31;20396;-84
2022/06/27 09:35:46;;;;;;;11.77;4.78;;;30.50;64.50;;;;;;4663001;25;20514;-84
2022/06/27 09:38:12;;;;;;;7.70;3.92;;;30.60;65.50;;;;;;4671668;30;20033;-83
2022/06/27 09:40:41;;;;;;;9.82;3.80;;;30.70;64.60;;;;;;4685362;30;20037;-86
2022/06/27 09:43:09;;;;;;;7.00;3.42;;;30.90;64.10;;;;;;4671396;30;20038;-86
2022/06/27 09:45:37;;;;;;;6.88;3.60;;;30.90;62.80;;;;;;4671528;30;20370;-83
2022/06/27 09:48:06;;;;;;;6.05;3.13;;;31.00;62.20;;;;;;4671110;30;20026;-85
2022/06/27 09:50:35;;;;;;;7.22;3.05;;;31.30;61.60;;;;;;4671154;30;20034;-83
2022/06/27 09:53:02;;;;;;;6.97;3.45;;;31.40;58.60;;;;;;4671545;30;20438;-83
2022/06/27 09:55:28;;;;;;;7.80;3.30;;;31.80;58.50;;;;;;4670749;30;20038;-87
2022/06/27 09:57:55;;;;;;;5.28;2.63;;;31.90;59.70;;;;;;4670797;30;20080;-85
2022/06/27 10:00:22;;;;;;;5.80;2.60;;;31.80;57.00;;;;;;4670788;30;20501;-85
2022/06/27 10:02:49;;;;;;;6.57;2.72;;;31.60;55.70;;;;;;4664748;25;20336;-84
2022/06/27 10:05:28;;;;;;;6.78;2.65;;;28.60;53.30;;;;;;4667578;30;20054;-87
2022/06/27 10:08:20;;;;;;;4.28;2.00;;;31.70;53.60;;;;;;4669481;30;20113;-84
2022/06/27 10:11:12;;;;;;;4.75;2.67;;;31.70;51.50;;;;;;4668297;30;20046;-85
2022/06/27 10:14:01;;;;;;;6.80;2.40;;;31.90;52.10;;;;;;4677583;25;20276;-84
2022/06/27 10:16:34;;;;;;;5.45;1.98;;;33.20;53.40;;;;;;4684200;30;20041;-85
2022/06/27 10:19:05;;;;;;;5.07;2.03;;;32.10;52.60;;;;;;4686223;30;20113;-83
2022/06/27 10:21:56;;;;;;;8.27;2.00;;;32.40;51.80;;;;;;4686245;30;20073;-84
2022/06/27 10:24:25;;;;;;;4.50;1.60;;;32.70;50.90;;;;;;4670097;30;20534;-83
2022/06/27 10:26:55;;;;;;;3.95;2.03;;;32.90;50.40;;;;;;4669892;30;20571;-83
2022/06/27 10:29:30;;;;;;;2.92;1.30;;;33.20;49.00;;;;;;4685744;30;20041;-84
2022/06/27 10:31:57;;;;;;;3.88;1.20;;;33.20;45.50;;;;;;4709825;25;20058;-83
2022/06/27 10:34:38;;;;;;;1.45;0.80;;;33.20;41.80;;;;;;4651951;30;20038;-84
2022/06/27 10:37:24;;;;;;;3.45;1.40;;;32.80;40.30;;;;;;4653219;30;20029;-84
2022/06/27 10:39:51;;;;;;;3.45;1.85;;;32.90;43.40;;;;;;4652529;30;20033;-84
2022/06/27 10:42:52;;;;;;;4.15;1.73;;;33.10;45.00;;;;;;4668234;30;20379;-84
2022/06/27 10:45:21;;;;;;;4.32;1.95;;;33.10;46.00;;;;;;4652981;30;20055;-84
2022/06/27 10:47:51;;;;;;;3.83;1.95;;;33.40;47.20;;;;;;4652877;30;20121;-85
2022/06/27 10:50:19;;;;;;;6.45;2.05;;;33.60;47.60;;;;;;4652782;30;20055;-84
2022/06/27 10:52:46;;;;;;;4.90;2.50;;;33.90;48.00;;;;;;4652980;30;20153;-84
2022/06/27 10:55:27;;;;;;;5.45;2.67;;;33.70;48.40;;;;;;4668117;30;20065;-86
2022/06/27 10:57:54;;;;;;;6.13;2.35;;;34.00;48.50;;;;;;4652445;30;20045;-83
2022/06/27 11:00:45;;;;;;;6.20;2.42;;;33.90;48.30;;;;;;4667853;30;20471;-84
2022/06/27 11:03:22;;;;;;;4.82;2.20;;;33.40;46.50;;;;;;4747879;25;20066;-86
2022/06/27 11:06:08;;;;;;;6.40;2.25;;;34.20;47.70;;;;;;4667883;30;20033;-85
2022/06/27 11:08:37;;;;;;;8.32;2.53;;;34.10;47.00;;;;;;4654515;30;20026;-85
2022/06/27 11:11:04;;;;;;;5.28;1.95;;;34.10;46.80;;;;;;4654437;30;20129;-85
2022/06/27 11:13:49;;;;;;;4.78;1.80;;;34.30;44.80;;;;;;4654872;30;20220;-84
2022/06/27 11:16:23;;;;;;;5.60;2.05;;;34.40;43.90;;;;;;4671074;30;20026;-86
2022/06/27 11:18:51;;;;;;;2.13;1.25;;;34.50;43.20;;;;;;4668432;30;20030;-85
2022/06/27 11:21:25;;;;;;;3.28;1.23;;;34.70;43.30;;;;;;4652866;30;20124;-82
2022/06/27 11:24:00;;;;;;;3.03;1.55;;;34.90;42.80;;;;;;4652195;30;20037;-84
2022/06/27 11:26:30;;;;;;;4.15;1.60;;;35.10;42.00;;;;;;4667888;30;20034;-84
2022/06/27 11:32:11;;;;;;;4.35;1.90;;;35.00;41.90;;;;;;4668113;30;20055;-83
2022/06/27 11:34:49;;;;;;;6.63;1.60;;;35.50;41.70;;;;;;4667793;30;20050;-85
2022/06/27 11:37:21;;;;;;;2.67;1.52;;;36.00;41.30;;;;;;4651833;30;20041;-84
2022/06/27 11:39:58;;;;;;;3.20;1.40;;;36.30;41.00;;;;;;4667477;30;20530;-84
2022/06/27 11:42:31;;;;;;;3.22;1.50;;;36.30;41.40;;;;;;4652107;30;20129;-84
2022/06/27 11:45:11;;;;;;;2.92;1.65;;;36.60;41.10;;;;;;4651722;30;20653;-84
2022/06/27 11:47:47;;;;;;;3.38;1.80;;;36.60;40.60;;;;;;4667215;30;20058;-87
2022/06/27 11:50:14;;;;;;;4.85;1.70;;;34.70;39.70;;;;;;4667681;30;20034;-83
2022/06/27 11:53:01;;;;;;;2.42;1.30;;;37.20;41.30;;;;;;4652030;30;20520;-84
2022/06/27 11:55:27;;;;;;;3.00;1.63;;;37.60;41.10;;;;;;4666453;30;20218;-84
2022/06/27 11:58:17;;;;;;;2.75;1.50;;;38.40;40.30;;;;;;4652201;30;20038;-84
2022/06/27 12:00:54;;;;;;;3.25;1.35;;;39.00;39.80;;;;;;4597045;31;20268;-85
2022/06/27 12:03:25;;;;;;;2.92;1.50;;;39.10;40.50;;;;;;4596626;31;20134;-84
2022/06/27 12:06:28;;;;;;;2.57;1.40;;;39.00;41.40;;;;;;4583399;31;20040;-85
2022/06/27 12:09:13;;;;;;;3.75;1.50;;;35.60;36.20;;;;;;4597249;30;21241;-82
2022/06/27 12:11:59;;;;;;;3.33;1.42;;;39.30;38.90;;;;;;4596778;31;20051;-85
2022/06/27 12:14:26;;;;;;;3.65;2.00;;;40.00;38.60;;;;;;4596464;31;20079;-83
2022/06/27 12:17:09;;;;;;;3.97;1.50;;;39.80;38.40;;;;;;4596605;31;20024;-83
2022/06/27 12:20:16;;;;;;;3.90;1.55;;;40.30;37.70;;;;;;4596715;31;20523;-83
2022/06/27 12:22:43;;;;;;;3.33;1.50;;;40.20;38.60;;;;;;4637825;25;20125;-85
2022/06/27 12:25:09;;;;;;;4.10;1.67;;;39.50;37.60;;;;;;4649766;30;20094;-84
2022/06/27 12:27:35;;;;;;;4.13;1.85;;;39.50;38.00;;;;;;4650077;30;20034;-83
2022/06/27 12:30:00;;;;;;;5.03;1.50;;;39.50;37.80;;;;;;4648739;30;20427;-85
2022/06/27 12:32:26;;;;;;;3.50;1.45;;;39.70;37.70;;;;;;4648512;30;20476;-84
2022/06/27 12:34:55;;;;;;;3.80;1.63;;;39.50;37.90;;;;;;4650234;30;20034;-84
2022/06/27 12:37:36;;;;;;;5.13;1.77;;;39.70;37.80;;;;;;4648352;30;20108;-85
2022/06/27 12:40:03;;;;;;;3.00;1.70;;;40.70;37.90;;;;;;4648321;30;20023;-84
2022/06/27 12:42:29;;;;;;;12.95;3.42;;;40.60;37.00;;;;;;4648502;30;20039;-83
2022/06/27 12:45:04;;;;;;;4.32;1.65;;;41.00;37.20;;;;;;4648467;30;20530;-86
2022/06/27 12:47:31;;;;;;;3.53;1.48;;;40.70;36.80;;;;;;4650188;30;20034;-84
2022/06/27 12:49:59;;;;;;;4.05;1.83;;;40.30;37.00;;;;;;4648497;30;20034;-86
2022/06/27 12:52:25;;;;;;;3.08;1.73;;;40.30;37.40;;;;;;4650290;30;20039;-82
2022/06/27 12:55:06;;;;;;;4.80;1.73;;;40.40;37.30;;;;;;4649842;30;20057;-84
2022/06/27 12:57:51;;;;;;;3.72;1.63;;;40.20;37.10;;;;;;4650249;30;20117;-83
2022/06/27 13:00:36;;;;;;;3.80;1.60;;;40.70;39.00;;;;;;4649852;30;20042;-84
2022/06/27 13:03:12;;;;;;;;;;;;;;;;;;;;;
2022/06/27 13:05:39;;;;;;;5.50;1.90;;;39.40;38.50;;;;;;4649168;30;20042;-85
2022/06/27 13:08:07;;;;;;;2.60;1.70;;;39.70;38.30;;;;;;4648121;30;20397;-82